Time;durP1;ratioP1;P1;durP2;ratioP2;P2;SDS_P1;SDS_P2;PMS_P1;PMS_P2;Temp;Humidity;BMP_temperature;BMP_pressure;BME280_temperature;BME280_humidity;BME280_pressure;Samples;Min_cycle;Max_cycle;Signal;HPM_P1;HPM_P2
2022/09/23 00:01:32;;;;;;;11.10;7.07;;;;;;;9.27;81.31;95057.78;5012733;28;20613;-74
2022/09/23 00:03:59;;;;;;;9.20;6.60;;;;;;;9.14;81.56;95044.63;5012851;28;20208;-74
2022/09/23 00:06:28;;;;;;;8.50;6.50;;;;;;;9.19;82.08;95055.34;5012509;28;20566;-74
2022/09/23 00:08:54;;;;;;;9.40;7.17;;;;;;;9.17;81.74;95057.34;5012559;28;20211;-74
2022/09/23 00:11:24;;;;;;;9.33;6.27;;;;;;;9.14;82.20;95049.88;5012474;28;20287;-74
2022/09/23 00:13:53;;;;;;;7.50;5.70;;;;;;;9.12;82.25;95051.09;5012316;28;20271;-74
2022/09/23 00:16:25;;;;;;;9.90;6.33;;;;;;;9.07;82.39;95041.19;5012155;28;20160;-74
2022/09/23 00:18:51;;;;;;;10.00;7.27;;;;;;;9.08;82.08;95037.56;5012199;28;20228;-74
2022/09/23 00:21:18;;;;;;;8.23;6.63;;;;;;;9.08;82.26;95042.81;5012157;28;20546;-74
2022/09/23 00:23:43;;;;;;;11.47;7.73;;;;;;;9.04;82.57;95041.56;5012167;28;20165;-74
2022/09/23 00:26:14;;;;;;;15.17;8.40;;;;;;;8.99;82.73;95041.34;5011926;28;20620;-74
2022/09/23 00:28:41;;;;;;;12.77;7.33;;;;;;;8.95;82.71;95037.50;5011948;28;20694;-74
2022/09/23 00:31:09;;;;;;;12.50;6.33;;;;;;;8.94;82.90;95036.69;5012109;28;20164;-74
2022/09/23 00:33:35;;;;;;;12.00;7.90;;;;;;;8.88;82.99;95044.53;5012025;28;20299;-74
2022/09/23 00:36:03;;;;;;;8.77;6.37;;;;;;;8.88;83.05;95040.09;5012034;28;20647;-74
2022/09/23 00:38:29;;;;;;;12.60;6.77;;;;;;;8.89;82.74;95035.66;4978261;28;20192;-74
2022/09/23 00:40:54;;;;;;;8.10;5.73;;;;;;;8.90;82.62;95045.97;5011715;28;20172;-74
2022/09/23 00:43:36;;;;;;;8.63;5.33;;;;;;;8.84;82.67;95036.22;5011899;28;20616;-74
2022/09/23 00:46:02;;;;;;;9.40;5.40;;;;;;;8.85;82.86;95042.28;5011910;28;20314;-74
2022/09/23 00:48:28;;;;;;;6.33;4.67;;;;;;;8.83;82.90;95041.66;5011720;28;20247;-74
2022/09/23 00:50:54;;;;;;;7.40;5.40;;;;;;;8.75;82.93;95039.22;5011845;28;20191;-74
2022/09/23 00:53:22;;;;;;;8.83;4.90;;;;;;;8.66;83.01;95035.94;5011681;28;20203;-74
2022/09/23 00:56:01;;;;;;;7.23;5.40;;;;;;;8.38;83.39;94998.47;5011671;28;20255;-74
2022/09/23 00:58:30;;;;;;;6.30;4.67;;;;;;;8.65;82.84;95043.00;5011651;28;20161;-74
2022/09/23 01:01:00;;;;;;;13.27;4.90;;;;;;;8.63;82.98;95042.41;5011387;28;20176;-74
2022/09/23 01:03:26;;;;;;;5.60;4.27;;;;;;;8.62;83.07;95032.91;4994081;28;20315;-74
2022/09/23 01:05:52;;;;;;;9.27;4.17;;;;;;;8.64;82.90;95037.97;5011321;28;20164;-74
2022/09/23 01:08:18;;;;;;;5.67;4.50;;;;;;;8.58;83.39;95041.34;5011260;28;20184;-74
2022/09/23 01:11:00;;;;;;;6.33;4.90;;;;;;;8.49;84.12;95040.69;5011239;28;20677;-74
2022/09/23 01:13:29;;;;;;;5.90;4.70;;;;;;;8.47;84.30;95042.72;5011132;28;20211;-74
2022/09/23 01:16:00;;;;;;;6.87;5.10;;;;;;;8.48;84.47;95056.63;5011026;28;20195;-73
2022/09/23 01:18:56;;;;;;;5.77;4.53;;;;;;;8.54;83.74;95040.13;5010932;28;20660;-73
2022/09/23 01:21:30;;;;;;;5.57;4.53;;;;;;;8.49;84.25;95051.19;5011047;28;20188;-74
2022/09/23 01:24:16;;;;;;;5.97;4.43;;;;;;;8.51;84.14;95040.50;5011025;28;20163;-74
2022/09/23 01:27:12;;;;;;;6.93;4.53;;;;;;;8.52;83.85;95045.56;5011059;28;20172;-74
2022/09/23 01:29:59;;;;;;;4.83;4.30;;;;;;;8.56;84.15;95046.00;5011073;28;20161;-74
2022/09/23 01:32:52;;;;;;;6.17;4.90;;;;;;;8.51;84.58;95048.38;5010918;28;20175;-74
2022/09/23 01:35:59;;;;;;;6.80;4.83;;;;;;;8.38;85.19;95054.38;5011038;28;20226;-73
2022/09/23 01:38:32;;;;;;;7.33;5.50;;;;;;;8.42;85.41;95054.78;4931498;29;20185;-73
2022/09/23 01:41:11;;;;;;;7.57;5.50;;;;;;;8.42;85.07;95046.91;4998381;28;20271;-73
2022/09/23 01:43:46;;;;;;;7.30;5.17;;;;;;;8.47;85.00;95047.97;5010808;28;20606;-73
2022/09/23 01:46:46;;;;;;;6.23;5.00;;;;;;;8.50;85.50;95050.19;5010881;28;20238;-73
2022/09/23 01:49:15;;;;;;;6.33;5.00;;;;;;;8.55;85.27;95054.88;5006542;28;20189;-73
2022/09/23 01:51:51;;;;;;;7.27;4.80;;;;;;;8.42;85.74;95015.44;5010806;28;20275;-74
2022/09/23 01:54:37;;;;;;;8.33;5.53;;;;;;;8.62;85.58;95048.66;5010583;28;20196;-74
2022/09/23 01:57:10;;;;;;;6.83;5.20;;;;;;;8.62;85.80;95053.09;5010351;28;20168;-73
2022/09/23 01:59:51;;;;;;;7.40;5.37;;;;;;;8.53;85.59;95051.63;5010609;28;20222;-73
2022/09/23 02:02:22;;;;;;;8.13;5.30;;;;;;;8.49;85.11;95055.63;5010625;28;20250;-73
2022/09/23 02:04:55;;;;;;;9.13;5.23;;;;;;;8.31;85.42;95049.06;5010649;28;20211;-73
2022/09/23 02:07:25;;;;;;;7.00;5.10;;;;;;;8.20;85.50;95052.19;5010534;28;20188;-73
2022/09/23 02:10:09;;;;;;;6.70;4.77;;;;;;;8.16;85.44;95050.13;5010615;28;20733;-73
2022/09/23 02:12:39;;;;;;;7.37;4.93;;;;;;;8.18;85.57;95051.56;5010471;28;20180;-73
2022/09/23 02:15:15;;;;;;;9.97;5.80;;;;;;;8.28;85.22;95049.41;5010230;28;20172;-73
2022/09/23 02:17:54;;;;;;;9.57;5.93;;;;;;;8.36;85.37;95048.50;5010339;28;20251;-74
2022/09/23 02:20:28;;;;;;;19.07;5.40;;;;;;;8.42;84.93;95052.97;5009598;28;20173;-73
2022/09/23 02:23:18;;;;;;;7.60;5.23;;;;;;;8.46;84.83;95056.03;5010418;28;20250;-73
2022/09/23 02:26:07;;;;;;;6.63;5.03;;;;;;;8.53;84.48;95052.44;5010604;28;20179;-74
2022/09/23 02:29:11;;;;;;;7.10;5.30;;;;;;;8.59;84.60;95045.59;5010559;28;20161;-74
2022/09/23 02:31:42;;;;;;;7.33;5.47;;;;;;;8.52;84.58;95032.44;5010523;28;20717;-74
2022/09/23 02:34:44;;;;;;;9.60;5.07;;;;;;;8.66;84.27;95051.69;5010662;28;21115;-74
2022/09/23 02:37:44;;;;;;;7.07;5.17;;;;;;;8.65;84.33;95050.88;5010486;28;20192;-74
2022/09/23 02:40:42;;;;;;;7.83;5.50;;;;;;;8.68;84.47;95047.88;5010077;28;20168;-74
2022/09/23 02:43:09;;;;;;;7.30;5.13;;;;;;;8.69;84.34;95043.44;5007240;28;20204;-74
2022/09/23 02:45:37;;;;;;;7.23;4.70;;;;;;;8.69;84.60;95046.88;5010047;28;20554;-74
2022/09/23 02:48:08;;;;;;;8.93;4.87;;;;;;;8.70;85.03;95051.13;5009798;28;20176;-74
2022/09/23 02:50:35;;;;;;;6.93;5.00;;;;;;;8.79;84.77;95045.69;5010241;28;20206;-75
2022/09/23 02:53:01;;;;;;;6.17;4.67;;;;;;;8.87;84.79;95054.22;5010156;28;20282;-74
2022/09/23 02:55:31;;;;;;;8.53;5.80;;;;;;;8.94;84.71;95059.50;5009915;28;20173;-74
2022/09/23 02:58:00;;;;;;;6.90;4.60;;;;;;;8.99;84.19;95057.09;5010148;28;20184;-74
2022/09/23 03:00:44;;;;;;;9.40;4.90;;;;;;;9.02;84.22;95062.75;4992402;28;20179;-74
2022/09/23 03:03:22;;;;;;;6.00;4.20;;;;;;;9.08;84.29;95058.56;5009889;28;20186;-74
2022/09/23 03:05:55;;;;;;;8.57;5.50;;;;;;;9.12;83.47;95062.41;5007953;28;20177;-74
2022/09/23 03:08:36;;;;;;;10.77;6.17;;;;;;;9.12;83.11;95056.34;5010130;28;20534;-74
2022/09/23 03:11:10;;;;;;;6.03;4.30;;;;;;;8.94;82.55;95033.25;5013409;28;20259;-74
2022/09/23 03:14:03;;;;;;;7.43;3.63;;;;;;;9.07;82.14;95056.94;4995652;28;20279;-74
2022/09/23 03:16:38;;;;;;;7.57;4.77;;;;;;;9.07;82.13;95062.19;5013476;28;20173;-74
2022/09/23 03:19:22;;;;;;;7.80;4.83;;;;;;;9.05;81.72;95059.75;5012078;28;20254;-74
2022/09/23 03:22:01;;;;;;;6.30;5.13;;;;;;;8.95;81.64;95069.00;5013742;28;20648;-74
2022/09/23 03:24:33;;;;;;;7.57;4.80;;;;;;;8.83;81.57;95046.91;5013288;28;20176;-74
2022/09/23 03:27:03;;;;;;;9.10;5.13;;;;;;;8.82;81.53;95045.31;5013231;28;20283;-74
2022/09/23 03:29:29;;;;;;;7.50;5.47;;;;;;;8.89;81.51;95054.03;5008550;28;20208;-74
2022/09/23 03:31:56;;;;;;;6.40;4.57;;;;;;;8.83;81.52;95060.03;5006164;28;20184;-74
2022/09/23 03:34:31;;;;;;;6.07;4.50;;;;;;;8.83;81.47;95060.03;4993342;28;20237;-74
2022/09/23 03:37:23;;;;;;;8.30;4.43;;;;;;;8.82;81.15;95058.44;4993369;28;20177;-74
2022/09/23 03:40:18;;;;;;;7.30;4.57;;;;;;;8.76;81.74;95056.56;4992643;28;20189;-74
2022/09/23 03:42:45;;;;;;;6.00;4.60;;;;;;;8.73;81.28;95056.97;4990102;28;20208;-74
2022/09/23 03:45:17;;;;;;;8.27;5.13;;;;;;;8.67;81.37;95063.81;4980374;28;20184;-74
2022/09/23 03:47:43;;;;;;;14.13;4.97;;;;;;;8.61;81.50;95061.97;4993094;28;20185;-74
2022/09/23 03:50:12;;;;;;;12.60;7.40;;;;;;;8.53;81.83;95060.31;4992801;28;20216;-74
2022/09/23 03:52:38;;;;;;;7.83;5.97;;;;;;;8.44;82.47;95064.06;4993160;28;20177;-74
2022/09/23 03:55:07;;;;;;;8.90;5.87;;;;;;;8.35;83.31;95070.47;4984590;28;20216;-74
2022/09/23 03:57:33;;;;;;;8.60;5.53;;;;;;;8.33;83.94;95068.03;4980739;28;20592;-74
2022/09/23 03:59:58;;;;;;;8.00;5.50;;;;;;;8.37;83.86;95071.09;4981652;28;20224;-74
2022/09/23 04:02:23;;;;;;;7.10;5.00;;;;;;;8.37;83.40;95078.16;4981502;28;20231;-74
2022/09/23 04:04:49;;;;;;;7.53;5.40;;;;;;;8.34;83.84;95074.09;4988149;28;20196;-74
2022/09/23 04:07:15;;;;;;;10.57;5.80;;;;;;;8.03;84.23;95029.06;4994802;28;20189;-74
2022/09/23 04:09:40;;;;;;;7.20;5.07;;;;;;;8.11;84.34;95058.56;5011686;28;21043;-74
2022/09/23 04:12:06;;;;;;;7.27;5.47;;;;;;;8.21;84.35;95074.78;5012572;28;20196;-73
2022/09/23 04:14:32;;;;;;;7.83;5.43;;;;;;;8.21;84.23;95076.59;5012231;28;20228;-73
2022/09/23 04:16:57;;;;;;;9.90;5.67;;;;;;;8.21;84.19;95079.22;5012287;28;20208;-73
2022/09/23 04:19:23;;;;;;;9.63;5.97;;;;;;;8.15;84.41;95075.53;5029787;28;20302;-74
2022/09/23 04:21:48;;;;;;;7.83;5.70;;;;;;;8.09;84.16;95075.50;5024157;28;20605;-73
2022/09/23 04:24:15;;;;;;;8.53;6.33;;;;;;;7.79;84.39;95032.91;5012264;28;20176;-73
2022/09/23 04:26:41;;;;;;;10.87;6.80;;;;;;;8.12;84.82;95094.28;5012294;28;20168;-74
2022/09/23 04:29:06;;;;;;;12.23;6.30;;;;;;;8.07;85.39;95094.03;5019602;28;20265;-73
2022/09/23 04:31:33;;;;;;;12.30;8.03;;;;;;;8.03;86.30;95092.00;5030852;28;20651;-74
2022/09/23 04:33:59;;;;;;;10.73;6.70;;;;;;;8.00;86.84;95092.34;5012011;28;20210;-74
2022/09/23 04:36:25;;;;;;;9.10;6.33;;;;;;;7.88;87.28;95074.50;5010838;28;20651;-74
2022/09/23 04:38:51;;;;;;;12.10;6.70;;;;;;;7.97;87.63;95096.97;5007596;28;20179;-74
2022/09/23 04:41:17;;;;;;;8.77;6.63;;;;;;;7.97;88.01;95106.63;5012050;28;20180;-75
2022/09/23 04:43:44;;;;;;;9.00;6.70;;;;;;;7.92;87.91;95099.34;5012106;28;20211;-75
2022/09/23 04:46:11;;;;;;;10.13;6.43;;;;;;;8.00;87.68;95110.69;5011878;28;20670;-74
2022/09/23 04:48:38;;;;;;;9.73;6.47;;;;;;;8.07;87.72;95111.56;4994261;28;20176;-75
2022/09/23 04:51:12;;;;;;;11.60;6.47;;;;;;;8.06;87.74;95117.81;5011594;28;20188;-74
2022/09/23 04:53:40;;;;;;;10.20;6.10;;;;;;;8.05;87.44;95114.38;5011326;28;20271;-74
2022/09/23 04:56:08;;;;;;;9.97;6.67;;;;;;;7.86;87.80;95096.69;5011127;28;20820;-74
2022/09/23 04:58:34;;;;;;;11.43;7.43;;;;;;;8.03;88.10;95119.00;5011015;28;20164;-74
2022/09/23 05:01:14;;;;;;;10.13;6.70;;;;;;;8.15;87.81;95120.09;5011384;28;20226;-74
2022/09/23 05:03:41;;;;;;;10.67;6.73;;;;;;;8.01;88.04;95093.97;5011098;28;20165;-74
2022/09/23 05:06:07;;;;;;;12.20;8.93;;;;;;;8.09;88.19;95105.16;5010680;28;20581;-74
2022/09/23 05:08:34;;;;;;;28.30;19.40;;;;;;;7.97;87.95;95120.56;5010646;28;20218;-74
2022/09/23 05:11:01;;;;;;;33.50;23.40;;;;;;;7.96;87.94;95126.78;5010402;28;20177;-74
2022/09/23 05:13:26;;;;;;;37.80;27.27;;;;;;;7.77;88.24;95124.81;4993236;28;20205;-74
2022/09/23 05:16:01;;;;;;;34.90;22.83;;;;;;;7.78;88.58;95123.81;5010875;28;20172;-74
2022/09/23 05:18:41;;;;;;;18.93;12.40;;;;;;;7.89;89.08;95128.56;5010919;28;20220;-74
2022/09/23 05:21:09;;;;;;;21.00;11.87;;;;;;;7.76;88.93;95112.72;5011127;28;20168;-74
2022/09/23 05:23:35;;;;;;;29.27;21.53;;;;;;;7.94;89.27;95135.88;5011288;28;20192;-74
2022/09/23 05:26:12;;;;;;;35.03;27.63;;;;;;;8.00;89.45;95134.28;5010977;28;20226;-74
2022/09/23 05:28:40;;;;;;;32.57;22.83;;;;;;;7.89;89.25;95128.56;5011009;28;20251;-74
2022/09/23 05:31:13;;;;;;;38.70;26.67;;;;;;;7.75;89.67;95132.06;5010636;28;20230;-74
2022/09/23 05:33:40;;;;;;;44.07;28.87;;;;;;;7.87;90.03;95129.75;5011007;28;20208;-73
2022/09/23 05:36:07;;;;;;;37.43;25.13;;;;;;;7.90;89.90;95130.19;5011126;28;20173;-74
2022/09/23 05:38:33;;;;;;;24.77;18.90;;;;;;;7.85;90.86;95137.81;5011152;28;20172;-74
2022/09/23 05:41:00;;;;;;;21.80;15.40;;;;;;;8.02;90.67;95143.59;5010970;28;20655;-74
2022/09/23 05:43:26;;;;;;;18.70;13.77;;;;;;;8.22;89.86;95143.75;5010889;28;20169;-74
2022/09/23 05:46:04;;;;;;;14.37;10.17;;;;;;;8.29;89.07;95134.16;5011056;28;20176;-74
2022/09/23 05:48:30;;;;;;;16.77;12.73;;;;;;;8.21;88.76;95097.59;4977154;28;20597;-74
2022/09/23 05:50:56;;;;;;;13.63;9.90;;;;;;;8.60;88.25;95139.88;5010922;28;20175;-74
2022/09/23 05:53:21;;;;;;;9.60;7.10;;;;;;;8.76;87.04;95140.56;5010827;28;20248;-74
2022/09/23 05:55:47;;;;;;;14.20;7.97;;;;;;;8.87;86.81;95135.59;5010968;28;20168;-75
2022/09/23 05:58:12;;;;;;;17.07;7.80;;;;;;;9.14;86.51;95131.31;5010698;28;20172;-74
2022/09/23 06:00:39;;;;;;;30.00;8.97;;;;;;;9.34;85.45;95134.81;5010897;28;20288;-74
2022/09/23 06:03:06;;;;;;;11.53;7.23;;;;;;;9.51;84.10;95134.47;5011047;28;20207;-74
2022/09/23 06:05:31;;;;;;;9.13;6.60;;;;;;;9.65;82.82;95139.56;5010988;28;20176;-74
2022/09/23 06:07:57;;;;;;;11.03;7.30;;;;;;;9.71;82.02;95137.97;5010844;28;20182;-74
2022/09/23 06:10:23;;;;;;;9.77;5.93;;;;;;;9.80;81.72;95139.41;5010534;28;20168;-74
2022/09/23 06:12:48;;;;;;;8.43;6.23;;;;;;;9.84;81.43;95114.34;5010687;28;20172;-74
2022/09/23 06:15:14;;;;;;;10.53;6.13;;;;;;;10.16;81.78;95132.00;5010497;28;20168;-74
2022/09/23 06:17:39;;;;;;;10.83;6.33;;;;;;;10.55;80.67;95133.06;5010391;28;20231;-74
2022/09/23 06:20:05;;;;;;;7.50;5.13;;;;;;;10.78;77.85;95136.06;5010582;28;20307;-74
2022/09/23 06:22:31;;;;;;;8.43;5.87;;;;;;;11.17;76.20;95142.25;5010494;28;20651;-74
2022/09/23 06:24:56;;;;;;;9.33;5.33;;;;;;;11.27;74.89;95147.88;5010235;28;20172;-74
2022/09/23 06:27:23;;;;;;;8.73;5.40;;;;;;;11.27;75.13;95140.78;5010178;28;20172;-73
2022/09/23 06:29:51;;;;;;;6.10;4.43;;;;;;;11.15;74.56;95136.41;5010336;28;20211;-74
2022/09/23 06:32:17;;;;;;;6.13;4.57;;;;;;;11.06;74.79;95119.19;4992701;28;20172;-74
2022/09/23 06:34:44;;;;;;;6.80;4.60;;;;;;;11.22;75.21;95138.00;5011000;28;20643;-75
2022/09/23 06:37:10;;;;;;;9.80;5.67;;;;;;;11.47;75.36;95142.56;4992738;28;20199;-74
2022/09/23 06:39:35;;;;;;;6.27;4.90;;;;;;;11.65;74.93;95148.78;5009997;28;20180;-74
2022/09/23 06:42:01;;;;;;;5.97;4.40;;;;;;;11.60;74.00;95143.31;5009949;28;20172;-74
2022/09/23 06:44:27;;;;;;;4.67;3.77;;;;;;;11.65;74.40;95148.78;5013852;28;20190;-75
2022/09/23 06:46:53;;;;;;;6.53;4.80;;;;;;;11.82;73.86;95141.22;5014082;28;20177;-74
2022/09/23 06:49:20;;;;;;;10.87;5.13;;;;;;;11.98;73.69;95145.19;5014165;28;20238;-75
2022/09/23 06:51:45;;;;;;;8.00;5.00;;;;;;;12.27;73.98;95122.66;5014455;28;20671;-75
2022/09/23 06:54:11;;;;;;;4.97;4.10;;;;;;;13.15;70.80;95155.81;5014144;28;20192;-75
2022/09/23 06:56:37;;;;;;;5.17;4.47;;;;;;;14.03;68.17;95150.09;5014012;28;20168;-75
2022/09/23 06:59:03;;;;;;;8.37;4.17;;;;;;;14.71;65.90;95152.38;5013770;28;20177;-75
2022/09/23 07:01:28;;;;;;;5.93;4.10;;;;;;;15.44;62.99;95158.03;5013911;28;20234;-76
2022/09/23 07:03:54;;;;;;;4.90;3.80;;;;;;;16.13;60.11;95163.41;5013787;28;20211;-75
2022/09/23 07:06:20;;;;;;;3.97;3.57;;;;;;;16.69;59.24;95172.41;5013854;28;20663;-75
2022/09/23 07:08:46;;;;;;;3.40;3.07;;;;;;;17.04;56.80;95149.00;5014569;28;20168;-75
2022/09/23 07:11:12;;;;;;;4.53;3.55;;;;;;;17.53;55.57;95173.94;5013647;28;20181;-75
2022/09/23 07:13:39;;;;;;;4.40;3.78;;;;;;;17.46;54.19;95154.66;5013507;28;20203;-75
2022/09/23 07:16:05;;;;;;;7.05;3.40;;;;;;;17.45;54.61;95173.53;5014561;28;20169;-74
2022/09/23 07:18:35;;;;;;;3.90;3.00;;;;;;;17.45;54.08;95162.91;5013632;28;20227;-74
2022/09/23 07:21:14;;;;;;;3.50;3.20;;;;;;;17.66;53.78;95175.44;5013768;28;20716;-74
2022/09/23 07:23:47;;;;;;;4.35;3.40;;;;;;;17.54;53.82;95172.06;5012514;28;20211;-74
2022/09/23 07:26:14;;;;;;;10.25;3.30;;;;;;;17.49;54.21;95169.31;5013379;28;20167;-74
2022/09/23 07:28:39;;;;;;;3.83;3.42;;;;;;;17.56;53.90;95152.13;4995799;28;20557;-74
2022/09/23 07:31:08;;;;;;;4.43;3.17;;;;;;;17.55;54.41;95176.34;5013158;28;20176;-74
2022/09/23 07:33:35;;;;;;;5.30;3.78;;;;;;;17.65;53.80;95173.81;5013162;28;20196;-74
2022/09/23 07:36:08;;;;;;;7.88;3.22;;;;;;;17.46;53.63;95175.97;5013204;28;20168;-74
2022/09/23 07:38:35;;;;;;;3.72;3.10;;;;;;;17.06;53.44;95178.81;5013108;28;20246;-73
2022/09/23 07:41:05;;;;;;;5.00;3.70;;;;;;;16.93;54.77;95171.19;5012526;28;20180;-73
2022/09/23 07:43:31;;;;;;;5.65;3.08;;;;;;;17.37;56.08;95174.78;5012788;28;20172;-74
2022/09/23 07:46:03;;;;;;;3.28;2.97;;;;;;;17.46;54.21;95183.94;5011155;28;20211;-74
2022/09/23 07:48:29;;;;;;;4.55;3.28;;;;;;;16.93;53.62;95165.88;5010178;28;20173;-74
2022/09/23 07:50:56;;;;;;;4.20;3.25;;;;;;;16.33;54.81;95185.03;5011324;28;20283;-75
2022/09/23 07:53:22;;;;;;;4.13;3.35;;;;;;;16.20;56.71;95162.19;4994652;28;20192;-74
2022/09/23 07:55:55;;;;;;;4.03;3.55;;;;;;;16.45;56.05;95169.00;5011659;28;20181;-73
2022/09/23 07:58:21;;;;;;;4.60;3.40;;;;;;;16.51;57.59;95168.88;5012244;28;20553;-74
2022/09/23 08:00:47;;;;;;;4.05;3.05;;;;;;;16.98;56.75;95181.91;5011772;28;20156;-74
2022/09/23 08:03:13;;;;;;;4.72;3.03;;;;;;;16.81;54.25;95168.59;5012144;28;20206;-75
2022/09/23 08:05:39;;;;;;;9.02;3.20;;;;;;;16.58;55.27;95180.16;5012566;28;20172;-75
2022/09/23 08:08:05;;;;;;;4.95;3.70;;;;;;;16.62;56.95;95182.34;5012147;28;20655;-75
2022/09/23 08:10:32;;;;;;;3.65;3.28;;;;;;;16.98;55.91;95185.34;5012407;28;20212;-75
2022/09/23 08:12:58;;;;;;;4.38;3.17;;;;;;;17.38;56.02;95184.38;5012005;28;20236;-75
2022/09/23 08:15:25;;;;;;;9.20;3.40;;;;;;;17.77;55.25;95174.53;5010703;28;20176;-75
2022/09/23 08:17:52;;;;;;;3.75;2.70;;;;;;;18.13;52.60;95188.28;4994527;28;20227;-75
2022/09/23 08:23:06;;;;;;;2.92;2.60;;;;;;;18.95;51.08;95175.50;5008177;28;20722;-75
2022/09/23 08:25:32;;;;;;;4.47;2.92;;;;;;;19.40;49.32;95175.00;4993232;28;20207;-74
2022/09/23 08:27:58;;;;;;;3.72;2.95;;;;;;;19.13;47.85;95172.44;5009552;28;20613;-74
2022/09/23 08:30:24;;;;;;;4.25;3.08;;;;;;;18.76;48.86;95180.44;5009084;28;20675;-75
2022/09/23 08:32:50;;;;;;;3.95;2.40;;;;;;;18.56;50.47;95174.88;4997803;28;20188;-75
2022/09/23 08:35:16;;;;;;;4.00;3.20;;;;;;;18.17;51.12;95173.38;5010607;28;20200;-75
2022/09/23 08:37:41;;;;;;;3.88;2.70;;;;;;;17.83;51.86;95172.72;5010760;28;20183;-76
2022/09/23 08:40:07;;;;;;;3.10;2.80;;;;;;;17.53;52.66;95171.25;5010980;28;20218;-75
2022/09/23 08:42:38;;;;;;;3.70;2.70;;;;;;;17.26;52.59;95168.50;5011699;28;20164;-77
2022/09/23 08:45:06;;;;;;;4.13;2.90;;;;;;;17.37;53.63;95169.44;4994408;28;20172;-77
2022/09/23 08:48:11;;;;;;;3.08;2.72;;;;;;;16.71;52.77;95165.75;5011481;28;20200;-75
2022/09/23 08:50:47;;;;;;;3.20;2.63;;;;;;;16.51;54.73;95165.41;4993768;28;20196;-77
2022/09/23 08:53:29;;;;;;;7.70;2.88;;;;;;;17.08;55.57;95165.28;5010577;28;20180;-76
2022/09/23 08:55:58;;;;;;;4.75;2.50;;;;;;;17.91;53.47;95164.28;5012004;28;20678;-76
2022/09/23 08:58:49;;;;;;;5.03;2.47;;;;;;;18.21;51.40;95147.84;5011614;28;20172;-78
2022/09/23 09:01:41;;;;;;;6.68;2.55;;;;;;;18.42;49.90;95166.44;5012709;28;20184;-77
2022/09/23 09:04:21;;;;;;;2.88;2.33;;;;;;;18.08;49.35;95159.69;5011510;28;20180;-76
2022/09/23 09:07:12;;;;;;;4.72;2.60;;;;;;;18.29;52.32;95147.41;5011798;28;20204;-78
2022/09/23 09:09:51;;;;;;;2.47;2.10;;;;;;;18.73;50.73;95153.44;5012344;28;20176;-76
2022/09/23 09:12:21;;;;;;;3.20;2.55;;;;;;;19.00;50.41;95154.19;4994304;28;20195;-78
2022/09/23 09:15:06;;;;;;;3.63;2.47;;;;;;;18.82;47.77;95157.25;5028859;28;20760;-78
2022/09/23 09:17:47;;;;;;;14.93;9.38;;;;;;;18.40;49.01;95157.91;5031870;28;20212;-76
2022/09/23 09:20:18;;;;;;;14.63;9.00;;;;;;;18.16;51.15;95156.63;5031628;28;20171;-76
2022/09/23 09:22:58;;;;;;;4.78;3.00;;;;;;;17.88;50.60;95131.00;5030119;28;20172;-75
2022/09/23 09:25:43;;;;;;;5.07;2.33;;;;;;;17.46;52.11;95160.00;5011843;28;20164;-76
2022/09/23 09:28:20;;;;;;;5.03;2.10;;;;;;;17.40;50.47;95160.94;5011625;28;20164;-76
2022/09/23 09:30:53;;;;;;;2.58;2.30;;;;;;;17.32;51.31;95158.72;5010567;28;20229;-76
2022/09/23 09:33:23;;;;;;;3.83;1.90;;;;;;;17.53;51.95;95149.16;5010255;28;20203;-76
2022/09/23 09:36:25;;;;;;;3.15;2.13;;;;;;;17.91;51.63;95156.31;5010940;28;20652;-76
2022/09/23 09:38:52;;;;;;;2.30;2.10;;;;;;;18.10;51.00;95138.94;5010820;28;20682;-76
2022/09/23 09:41:20;;;;;;;2.45;1.90;;;;;;;18.36;50.44;95153.31;5009423;28;20196;-76
2022/09/23 09:43:49;;;;;;;4.20;2.17;;;;;;;18.42;49.41;95158.44;5008779;28;20184;-76
2022/09/23 09:46:45;;;;;;;2.05;1.85;;;;;;;18.62;49.51;95154.41;5009402;28;20211;-76
2022/09/23 09:49:33;;;;;;;2.22;2.03;;;;;;;18.51;47.92;95161.47;5009535;28;20177;-76
2022/09/23 09:52:11;;;;;;;2.47;2.25;;;;;;;18.46;48.45;95156.91;5009441;28;20566;-76
2022/09/23 09:54:38;;;;;;;2.85;2.00;;;;;;;18.48;48.63;95164.66;5009412;28;20210;-76
2022/09/23 09:57:10;;;;;;;3.47;1.65;;;;;;;18.58;48.51;95155.97;5010191;28;20194;-76
2022/09/23 09:59:40;;;;;;;3.50;2.17;;;;;;;18.53;47.93;95137.22;5010430;28;20214;-76
2022/09/23 10:02:29;;;;;;;1.70;1.50;;;;;;;18.54;47.41;95150.31;5010228;28;20603;-76
2022/09/23 10:05:01;;;;;;;2.20;1.88;;;;;;;18.28;47.62;95124.47;5010508;28;20176;-76
2022/09/23 10:07:31;;;;;;;3.38;2.08;;;;;;;18.42;48.61;95128.34;5010068;28;20187;-76
2022/09/23 10:09:57;;;;;;;2.17;1.98;;;;;;;18.52;48.25;95135.59;5010223;28;20215;-76
2022/09/23 10:12:24;;;;;;;2.45;2.25;;;;;;;18.48;48.48;95141.47;5010184;28;20224;-76
2022/09/23 10:14:54;;;;;;;3.47;2.17;;;;;;;18.48;47.72;95132.66;5010067;28;20216;-76
2022/09/23 10:17:30;;;;;;;11.43;2.42;;;;;;;18.20;47.20;95133.72;5010044;28;20184;-76
2022/09/23 10:19:59;;;;;;;2.38;1.98;;;;;;;18.09;49.17;95134.66;4986906;28;20207;-76
2022/09/23 10:22:30;;;;;;;2.58;1.90;;;;;;;18.24;49.31;95144.69;4994829;28;20181;-76
2022/09/23 10:25:02;;;;;;;2.58;1.70;;;;;;;18.24;50.05;95145.50;4994250;28;20204;-76
2022/09/23 10:27:30;;;;;;;5.25;2.70;;;;;;;18.23;47.72;95135.91;4994460;28;20227;-76
2022/09/23 10:29:59;;;;;;;2.22;1.75;;;;;;;18.22;48.15;95136.13;4994329;28;20192;-76
2022/09/23 10:32:27;;;;;;;5.97;1.90;;;;;;;18.09;48.29;95127.47;4994317;28;20652;-76
2022/09/23 10:35:08;;;;;;;4.63;3.03;;;;;;;17.93;48.37;95128.38;4976755;28;20791;-77
2022/09/23 10:37:47;;;;;;;4.63;2.47;;;;;;;17.89;48.50;95132.59;4994429;28;20671;-76
2022/09/23 10:46:44;;;;;;;1.85;1.73;;;;;;;17.79;46.05;95099.72;4994348;28;20183;-77
2022/09/23 10:49:29;;;;;;;2.38;1.90;;;;;;;17.67;46.61;95115.81;4994202;28;20172;-77
2022/09/23 10:52:23;;;;;;;3.92;2.20;;;;;;;17.63;48.90;95102.22;4976456;28;20176;-77
2022/09/23 10:55:26;;;;;;;2.13;1.92;;;;;;;17.75;47.82;95110.03;4994036;28;20587;-75
2022/09/23 10:58:19;;;;;;;5.30;2.30;;;;;;;17.48;47.11;95107.28;4993728;28;20193;-75
2022/09/23 11:01:17;;;;;;;4.65;2.10;;;;;;;17.11;48.33;95107.09;4993947;28;20177;-77
2022/09/23 11:04:07;;;;;;;2.22;1.83;;;;;;;17.26;48.34;95103.81;4994068;28;20245;-75
2022/09/23 11:06:54;;;;;;;2.67;1.80;;;;;;;17.17;46.96;95099.97;4993882;28;20938;-75
2022/09/23 11:09:48;;;;;;;2.95;1.30;;;;;;;17.28;45.25;95096.41;4994188;28;20176;-77
2022/09/23 11:12:40;;;;;;;3.70;2.30;;;;;;;17.47;45.67;95091.59;4993950;28;20169;-76
2022/09/23 11:15:43;;;;;;;1.60;1.50;;;;;;;17.60;44.49;95085.88;4993699;28;20211;-76
2022/09/23 11:18:28;;;;;;;3.60;1.95;;;;;;;17.70;44.82;95086.84;4999193;28;20315;-77
2022/09/23 11:21:24;;;;;;;5.57;1.77;;;;;;;17.69;43.38;95076.44;5013645;28;20624;-76
2022/09/23 11:23:55;;;;;;;3.88;1.20;;;;;;;17.44;42.06;95081.44;5013084;28;20160;-77
2022/09/23 11:26:40;;;;;;;4.95;1.58;;;;;;;17.25;43.82;95088.91;5013184;28;20713;-77
2022/09/23 11:29:16;;;;;;;3.13;1.88;;;;;;;17.06;44.75;95087.56;5012315;28;20251;-77
2022/09/23 11:32:05;;;;;;;1.40;1.30;;;;;;;16.88;45.75;95086.78;5012925;28;20184;-76
2022/09/23 11:34:51;;;;;;;1.55;1.40;;;;;;;16.98;45.68;95078.16;4995632;28;20200;-76
2022/09/23 11:37:26;;;;;;;2.28;1.45;;;;;;;17.03;45.59;95074.78;5012985;28;20168;-76
2022/09/23 11:40:17;;;;;;;1.23;1.13;;;;;;;17.04;44.55;95071.06;5013024;28;20619;-76
2022/09/23 11:43:06;;;;;;;1.30;1.20;;;;;;;16.83;46.17;95064.66;5013315;28;20164;-75
2022/09/23 11:46:03;;;;;;;1.90;1.40;;;;;;;17.09;47.08;95061.28;5013655;28;20660;-77
2022/09/23 11:48:44;;;;;;;3.63;1.40;;;;;;;17.47;46.03;95065.75;5013246;28;20168;-75
2022/09/23 11:51:24;;;;;;;5.25;1.85;;;;;;;17.56;44.07;95053.63;5013232;28;20606;-76
2022/09/23 11:53:58;;;;;;;4.60;2.97;;;;;;;17.76;44.81;95053.06;5013090;28;20271;-75
2022/09/23 11:56:47;;;;;;;2.67;1.30;;;;;;;17.90;44.00;95045.50;5013048;28;20182;-76
2022/09/23 11:59:34;;;;;;;11.68;2.28;;;;;;;18.08;43.06;95058.44;4995527;28;20610;-76
2022/09/23 12:02:14;;;;;;;1.98;1.15;;;;;;;17.85;43.71;95042.78;5013244;28;20200;-76
2022/09/23 12:04:44;;;;;;;4.57;2.40;;;;;;;17.99;43.96;95058.09;5013482;28;20180;-76
2022/09/23 12:07:20;;;;;;;2.45;1.40;;;;;;;17.89;42.93;95044.69;5012437;28;20204;-76
2022/09/23 12:10:07;;;;;;;1.80;1.67;;;;;;;18.13;43.68;95057.69;5012404;28;20171;-76
2022/09/23 12:12:38;;;;;;;1.73;1.30;;;;;;;18.21;43.05;95062.56;5012509;28;20584;-76
2022/09/23 12:15:04;;;;;;;1.55;1.45;;;;;;;18.10;43.22;95069.66;5012592;28;20203;-75